Time;durP1;ratioP1;P1;durP2;ratioP2;P2;SDS_P1;SDS_P2;PMS_P1;PMS_P2;Temp;Humidity;BMP_temperature;BMP_pressure;BME280_temperature;BME280_humidity;BME280_pressure;Samples;Min_cycle;Max_cycle;Signal;HPM_P1;HPM_P2
2021/12/22 00:02:24;;;;;;;52.67;27.40;;;;;;;1.01;77.66;101887.53;4922773;29;20051;-64
2021/12/22 00:04:53;;;;;;;53.72;28.05;;;;;;;0.61;78.92;101883.50;4937605;29;20361;-66
2021/12/22 00:07:20;;;;;;;53.67;28.52;;;;;;;0.47;79.25;101879.22;4937942;29;20368;-64
2021/12/22 00:09:48;;;;;;;55.20;29.50;;;;;;;0.52;79.53;101872.09;4937830;29;20055;-65
2021/12/22 00:12:15;;;;;;;55.28;29.67;;;;;;;0.56;79.90;101876.00;4937801;29;20074;-64
2021/12/22 00:14:42;;;;;;;57.88;29.23;;;;;;;0.45;80.23;101879.44;4937288;29;20067;-64
2021/12/22 00:17:10;;;;;;;59.72;31.50;;;;;;;0.75;80.58;101876.91;4935580;29;20063;-64
2021/12/22 00:19:37;;;;;;;55.63;29.60;;;;;;;0.88;79.40;101868.66;4937280;29;20056;-65
2021/12/22 00:22:05;;;;;;;54.92;30.27;;;;;;;0.84;79.29;101867.44;4939570;29;20058;-65
2021/12/22 00:24:34;;;;;;;59.90;29.77;;;;;;;0.96;78.50;101862.94;4941595;29;20054;-66
2021/12/22 00:27:01;;;;;;;68.57;31.80;;;;;;;0.42;79.90;101862.78;4941396;29;20048;-66
2021/12/22 00:29:29;;;;;;;55.15;29.40;;;;;;;0.34;80.83;101860.31;4941309;29;20052;-66
2021/12/22 00:32:15;;;;;;;63.35;30.92;;;;;;;0.51;81.31;101864.97;4941661;29;20063;-64
2021/12/22 00:34:48;;;;;;;59.22;30.10;;;;;;;0.64;80.27;101859.47;4939596;29;20067;-65
2021/12/22 00:37:17;;;;;;;56.97;28.40;;;;;;;0.69;80.20;101862.34;4941055;29;20067;-66
2021/12/22 00:39:45;;;;;;;53.70;28.45;;;;;;;0.84;78.88;101854.72;4939519;29;20545;-64
2021/12/22 00:42:13;;;;;;;52.15;28.15;;;;;;;0.83;79.01;101854.94;4940951;29;20061;-64
2021/12/22 00:44:41;;;;;;;51.85;26.83;;;;;;;0.80;79.41;101852.69;4939363;29;20047;-65
2021/12/22 00:47:09;;;;;;;52.60;26.25;;;;;;;0.80;78.17;101860.81;4940722;29;20059;-64
2021/12/22 00:49:37;;;;;;;49.63;26.63;;;;;;;0.85;78.34;101861.81;4940580;29;20054;-65
2021/12/22 00:52:04;;;;;;;48.53;25.65;;;;;;;0.91;78.26;101865.50;4940727;29;20048;-64
2021/12/22 00:54:32;;;;;;;51.35;27.38;;;;;;;0.92;78.12;101862.56;4940231;29;20067;-65
2021/12/22 00:57:05;;;;;;;48.85;26.95;;;;;;;0.90;77.70;101861.13;4940637;29;20059;-64
2021/12/22 00:59:33;;;;;;;53.30;28.20;;;;;;;0.81;78.08;101851.59;4940379;29;20074;-64
2021/12/22 01:02:03;;;;;;;52.33;27.83;;;;;;;0.78;78.53;101852.06;4939225;29;20121;-64
2021/12/22 01:04:30;;;;;;;50.10;27.08;;;;;;;0.61;79.71;101854.47;4921204;29;20448;-64
2021/12/22 01:06:57;;;;;;;55.88;26.95;;;;;;;0.61;79.60;101859.09;4921602;29;20055;-64
2021/12/22 01:09:25;;;;;;;50.55;26.50;;;;;;;0.57;80.35;101861.41;4921233;29;20068;-65
2021/12/22 01:11:52;;;;;;;50.92;26.67;;;;;;;0.80;79.76;101867.03;4921501;29;20411;-63
2021/12/22 01:14:21;;;;;;;45.30;25.42;;;;;;;0.71;79.77;101864.84;4921307;29;20075;-64
2021/12/22 01:16:51;;;;;;;53.90;27.20;;;;;;;0.69;79.38;101866.94;4921285;29;20144;-65
2021/12/22 01:19:26;;;;;;;48.58;25.25;;;;;;;0.87;79.19;101869.72;4919880;29;20116;-65
2021/12/22 01:22:02;;;;;;;52.95;26.80;;;;;;;0.75;79.52;101866.88;4921343;29;20048;-64
2021/12/22 01:24:33;;;;;;;52.00;26.63;;;;;;;0.80;79.11;101871.66;4920930;29;20063;-64
2021/12/22 01:27:08;;;;;;;50.50;24.55;;;;;;;0.97;78.21;101859.19;4921002;29;20452;-64
2021/12/22 01:29:39;;;;;;;52.53;25.45;;;;;;;0.99;78.00;101857.91;4919767;29;20052;-65
2021/12/22 01:32:09;;;;;;;52.05;25.92;;;;;;;1.00;77.88;101843.31;4918837;29;20048;-64
2021/12/22 01:34:36;;;;;;;52.28;27.85;;;;;;;0.84;78.43;101845.72;4920712;29;20059;-64
2021/12/22 01:37:04;;;;;;;50.15;26.45;;;;;;;1.05;77.93;101834.47;4921018;29;20056;-64
2021/12/22 01:39:31;;;;;;;51.60;26.75;;;;;;;0.86;78.44;101833.63;4919372;29;20412;-64
2021/12/22 01:41:58;;;;;;;54.25;27.95;;;;;;;0.96;78.83;101838.53;4920733;29;20376;-65
2021/12/22 01:44:46;;;;;;;49.47;28.30;;;;;;;0.97;78.07;101837.50;4920777;29;20384;-67
2021/12/22 01:49:59;;;;;;;54.08;28.25;;;;;;;1.07;78.06;101821.53;4920741;29;20083;-64
2021/12/22 01:52:27;;;;;;;54.25;27.55;;;;;;;1.05;78.61;101823.63;4920716;29;20040;-64
2021/12/22 01:55:04;;;;;;;57.25;28.30;;;;;;;1.26;77.93;101819.66;4918998;29;20063;-65
2021/12/22 01:57:34;;;;;;;50.50;26.90;;;;;;;1.15;77.11;101821.25;4920704;29;20048;-65
2021/12/22 02:00:04;;;;;;;57.22;27.55;;;;;;;1.02;78.00;101824.94;4919437;29;20619;-65
2021/12/22 02:02:39;;;;;;;55.67;27.48;;;;;;;1.09;78.54;101830.28;4925387;29;20047;-65
2021/12/22 02:05:07;;;;;;;55.97;28.40;;;;;;;1.02;79.29;101832.22;4939391;29;20055;-65
2021/12/22 02:07:36;;;;;;;58.60;28.33;;;;;;;1.21;78.21;101825.78;4939447;29;20063;-64
2021/12/22 02:10:35;;;;;;;59.38;28.33;;;;;;;1.26;78.29;101830.50;4939177;29;20449;-64
2021/12/22 02:12:54;;;;;;;57.95;28.95;;;;;;;1.27;78.24;101824.03;4937931;29;20059;-65
2021/12/22 02:15:21;;;;;;;61.60;30.70;;;;;;;1.12;78.10;101829.81;4939122;29;20050;-66
2021/12/22 02:17:49;;;;;;;60.72;29.77;;;;;;;1.30;78.18;101826.28;4939223;29;20050;-65
2021/12/22 02:20:17;;;;;;;54.88;28.13;;;;;;;1.17;77.92;101825.38;4939677;28;20070;-64
2021/12/22 02:22:45;;;;;;;54.67;27.83;;;;;;;0.90;78.91;101834.84;4939007;29;20047;-65
2021/12/22 02:25:18;;;;;;;59.83;29.38;;;;;;;0.91;78.76;101822.09;4938754;29;20078;-64
2021/12/22 02:27:53;;;;;;;53.38;28.33;;;;;;;0.86;78.67;101835.50;4938874;29;20051;-64
2021/12/22 02:30:27;;;;;;;57.70;28.33;;;;;;;1.06;78.45;101833.44;4939054;29;20468;-64
2021/12/22 02:35:37;;;;;;;49.38;27.98;;;;;;;1.29;78.32;101836.31;4937514;29;20052;-64
2021/12/22 02:38:12;;;;;;;55.05;27.05;;;;;;;1.28;77.40;101826.53;4937066;29;20059;-66
2021/12/22 02:40:41;;;;;;;52.58;27.13;;;;;;;1.15;77.79;101818.53;4938573;29;20051;-64
2021/12/22 02:43:08;;;;;;;57.95;27.40;;;;;;;1.16;77.52;101814.75;4937190;29;20063;-66
2021/12/22 02:45:36;;;;;;;57.78;27.05;;;;;;;1.13;77.74;101813.31;4938629;29;20059;-65
2021/12/22 02:48:05;;;;;;;52.47;26.63;;;;;;;0.98;78.24;101822.88;4938458;29;20495;-64
2021/12/22 02:50:36;;;;;;;54.75;27.83;;;;;;;0.84;78.97;101824.88;4938517;29;20216;-65
2021/12/22 02:53:07;;;;;;;58.78;28.65;;;;;;;0.73;78.51;101827.50;4938513;29;20056;-64
2021/12/22 02:55:50;;;;;;;57.35;28.88;;;;;;;0.70;79.64;101825.22;4938074;29;20059;-64
2021/12/22 02:58:32;;;;;;;54.67;27.35;;;;;;;0.91;78.90;101814.81;4938634;29;20068;-64
2021/12/22 03:03:54;;;;;;;;;;;;;;;1.06;78.39;101817.97;4924504;29;20056;-64
2021/12/22 03:06:35;;;;;;;56.30;27.08;;;;;;;0.90;78.39;101812.31;4919427;29;19931;-65
2021/12/22 03:09:20;;;;;;;58.70;29.10;;;;;;;0.83;78.72;101830.53;4919443;29;20056;-65
2021/12/22 03:11:48;;;;;;;58.38;28.77;;;;;;;1.02;78.45;101824.09;4919443;29;20051;-65
2021/12/22 03:14:17;;;;;;;54.85;27.42;;;;;;;0.93;78.17;101817.28;4919227;29;20056;-65
2021/12/22 03:16:45;;;;;;;52.80;29.60;;;;;;;0.88;78.46;101817.13;4919379;29;20407;-65
2021/12/22 03:19:16;;;;;;;54.45;28.52;;;;;;;1.02;77.72;101811.38;4917627;29;20052;-64
2021/12/22 03:21:44;;;;;;;60.92;30.90;;;;;;;0.89;77.83;101813.38;4919188;29;20055;-66
2021/12/22 03:24:13;;;;;;;53.25;28.05;;;;;;;0.90;78.42;101818.56;4918798;29;20491;-65
2021/12/22 03:26:44;;;;;;;58.42;28.35;;;;;;;1.08;77.99;101821.31;4917684;29;20067;-65
2021/12/22 03:29:14;;;;;;;56.42;28.92;;;;;;;0.75;78.53;101822.69;4918878;29;20500;-65
2021/12/22 03:31:42;;;;;;;62.63;29.30;;;;;;;0.56;79.15;101824.50;4918836;29;20048;-65
2021/12/22 03:34:09;;;;;;;64.43;29.17;;;;;;;0.66;80.20;101824.81;4901863;29;20534;-64
2021/12/22 03:36:37;;;;;;;63.50;29.70;;;;;;;0.79;79.52;101823.88;4918789;29;20048;-64
2021/12/22 03:39:05;;;;;;;62.13;30.05;;;;;;;0.92;78.25;101811.03;4918730;29;20055;-64
2021/12/22 03:41:35;;;;;;;58.28;27.83;;;;;;;0.68;78.59;101813.78;4918711;29;20056;-65
2021/12/22 03:44:03;;;;;;;57.17;27.98;;;;;;;0.72;79.26;101810.38;4918737;29;20055;-64
2021/12/22 03:46:32;;;;;;;63.35;30.05;;;;;;;0.77;78.99;101817.84;4917510;29;20052;-64
2021/12/22 03:49:00;;;;;;;57.78;30.13;;;;;;;0.75;79.40;101811.84;4918434;29;20052;-65
2021/12/22 03:51:27;;;;;;;64.70;29.85;;;;;;;0.81;78.74;101819.91;4918627;29;20082;-65
2021/12/22 03:53:55;;;;;;;67.10;30.17;;;;;;;0.90;78.92;101815.88;4918348;29;20044;-64
2021/12/22 03:56:22;;;;;;;61.03;31.02;;;;;;;0.98;79.40;101814.72;4917787;29;20067;-64
2021/12/22 03:58:49;;;;;;;66.28;30.38;;;;;;;1.19;79.01;101810.78;4918723;29;20048;-64
2021/12/22 04:01:17;;;;;;;63.38;29.98;;;;;;;1.05;77.96;101810.06;4918647;29;20052;-64
2021/12/22 04:03:48;;;;;;;60.55;28.80;;;;;;;1.14;77.86;101819.56;4931545;29;20059;-64
2021/12/22 04:06:15;;;;;;;58.28;27.58;;;;;;;1.06;77.71;101801.69;4937518;29;20078;-64
2021/12/22 04:08:43;;;;;;;58.67;27.55;;;;;;;1.15;77.05;101807.69;4937651;29;20055;-66
2021/12/22 04:11:10;;;;;;;53.58;27.13;;;;;;;1.15;77.06;101794.94;4937726;29;20055;-65
2021/12/22 04:13:38;;;;;;;54.03;27.33;;;;;;;1.04;77.48;101786.72;4937516;29;20046;-65
2021/12/22 04:16:05;;;;;;;57.53;26.55;;;;;;;1.15;77.50;101781.38;4951902;28;20062;-67
2021/12/22 04:18:32;;;;;;;51.88;27.00;;;;;;;1.06;76.99;101788.13;4937851;29;20055;-65
2021/12/22 04:21:00;;;;;;;52.03;27.05;;;;;;;0.92;77.17;101789.31;4937792;29;20059;-66
2021/12/22 04:23:27;;;;;;;52.35;26.70;;;;;;;1.12;77.02;101792.69;4937288;29;20063;-65
2021/12/22 04:25:54;;;;;;;56.28;27.48;;;;;;;0.90;76.54;101796.03;4937272;29;20060;-65
2021/12/22 04:28:21;;;;;;;54.33;27.00;;;;;;;0.93;76.61;101798.31;4937524;29;20495;-65
2021/12/22 04:30:50;;;;;;;54.15;27.23;;;;;;;0.97;77.05;101799.53;4937623;29;20643;-65
2021/12/22 04:33:21;;;;;;;56.13;27.92;;;;;;;0.99;76.71;101800.13;4937141;29;20056;-65
2021/12/22 04:35:49;;;;;;;59.65;29.50;;;;;;;1.11;76.22;101806.47;4937241;29;20058;-66
2021/12/22 04:38:17;;;;;;;55.92;28.50;;;;;;;1.09;76.63;101797.72;4937945;29;20066;-65
2021/12/22 04:40:45;;;;;;;63.03;28.15;;;;;;;1.05;76.63;101799.22;4937466;29;20163;-66
2021/12/22 04:43:12;;;;;;;54.78;28.30;;;;;;;1.13;76.60;101807.09;4937287;29;20051;-66
2021/12/22 04:45:39;;;;;;;60.10;27.38;;;;;;;0.88;76.90;101800.84;4936807;29;20483;-65
2021/12/22 04:48:07;;;;;;;63.85;30.95;;;;;;;1.25;76.96;101813.41;4935997;29;20515;-66
2021/12/22 04:50:35;;;;;;;63.45;28.50;;;;;;;0.98;76.65;101812.00;4936124;29;20058;-65
2021/12/22 04:53:12;;;;;;;60.88;29.50;;;;;;;1.19;76.68;101808.88;4937197;29;20047;-65
2021/12/22 04:55:39;;;;;;;56.80;27.90;;;;;;;1.19;76.34;101817.00;4936839;29;20059;-65
2021/12/22 04:58:07;;;;;;;57.25;27.13;;;;;;;1.30;75.91;101812.72;4937078;29;20055;-65
2021/12/22 05:00:36;;;;;;;60.03;27.05;;;;;;;1.26;75.31;101811.50;4935824;29;20058;-66
2021/12/22 05:03:03;;;;;;;57.00;26.92;;;;;;;0.98;76.04;101810.13;4945447;28;20626;-65
2021/12/22 05:05:31;;;;;;;53.70;26.42;;;;;;;1.03;76.31;101809.47;4937274;29;20407;-65
2021/12/22 05:07:59;;;;;;;55.65;27.17;;;;;;;1.03;76.04;101806.75;4921678;29;20062;-65
2021/12/22 05:10:27;;;;;;;54.65;27.35;;;;;;;0.96;75.83;101798.69;4923359;29;20063;-65
2021/12/22 05:12:54;;;;;;;49.50;25.80;;;;;;;0.79;76.66;101786.75;4940494;29;20043;-65
2021/12/22 05:15:23;;;;;;;58.38;26.75;;;;;;;0.78;76.92;101781.56;4939034;29;20387;-65
2021/12/22 05:20:23;;;;;;;53.03;26.10;;;;;;;1.14;75.66;101777.00;4938940;29;20060;-66
2021/12/22 05:22:51;;;;;;;52.70;24.90;;;;;;;0.71;76.41;101781.63;4940297;29;20074;-65
2021/12/22 05:25:19;;;;;;;54.47;25.67;;;;;;;0.74;76.55;101783.88;4939862;29;20059;-65
2021/12/22 05:27:46;;;;;;;54.65;26.63;;;;;;;0.63;76.71;101790.03;4938963;29;20060;-65
2021/12/22 05:30:14;;;;;;;54.55;27.30;;;;;;;0.73;77.19;101784.13;4938599;29;20067;-66
2021/12/22 05:32:41;;;;;;;64.13;27.70;;;;;;;0.74;77.45;101777.63;4940050;29;20063;-66
2021/12/22 05:35:10;;;;;;;54.42;26.45;;;;;;;0.51;77.72;101788.25;4939730;29;20044;-66
2021/12/22 05:37:38;;;;;;;59.95;28.05;;;;;;;0.69;77.64;101796.44;4922147;29;20052;-66
2021/12/22 05:40:07;;;;;;;57.50;26.92;;;;;;;0.69;77.40;101794.56;4938560;29;20051;-66
2021/12/22 05:42:35;;;;;;;60.20;28.13;;;;;;;0.65;77.00;101790.63;4922875;29;20057;-66
2021/12/22 05:45:03;;;;;;;51.95;26.08;;;;;;;0.76;76.25;101791.78;4938448;29;20501;-65
2021/12/22 05:47:31;;;;;;;53.67;25.50;;;;;;;0.70;76.29;101787.25;4939538;29;20052;-65
2021/12/22 05:49:58;;;;;;;59.95;27.00;;;;;;;0.45;77.13;101795.41;4939802;29;20060;-66
2021/12/22 05:52:25;;;;;;;50.33;26.02;;;;;;;0.49;77.48;101795.81;4939796;29;20063;-65
2021/12/22 05:54:53;;;;;;;61.20;29.02;;;;;;;0.52;77.23;101800.78;4938095;29;20155;-68
2021/12/22 05:57:20;;;;;;;48.35;26.17;;;;;;;0.55;77.49;101800.31;4939546;29;20048;-65
2021/12/22 05:59:48;;;;;;;53.42;27.67;;;;;;;0.56;77.92;101808.22;4939900;29;20060;-66
2021/12/22 06:02:15;;;;;;;54.58;27.00;;;;;;;0.34;77.99;101816.94;4939544;29;20388;-65
2021/12/22 06:04:42;;;;;;;56.35;28.08;;;;;;;0.39;77.96;101822.53;4939822;29;20073;-66
2021/12/22 06:07:10;;;;;;;57.75;28.00;;;;;;;0.26;78.12;101828.06;4939608;29;20055;-65
2021/12/22 06:09:37;;;;;;;61.30;30.30;;;;;;;0.47;78.68;101814.16;4939860;29;20063;-65
2021/12/22 06:12:05;;;;;;;58.83;28.83;;;;;;;0.56;78.12;101805.53;4939760;29;20082;-65
2021/12/22 06:14:32;;;;;;;61.22;29.77;;;;;;;0.49;78.69;101790.38;4938124;29;20527;-66
2021/12/22 06:16:59;;;;;;;58.42;29.52;;;;;;;0.56;77.70;101794.69;4938991;29;20061;-65
2021/12/22 06:19:26;;;;;;;60.15;29.33;;;;;;;0.68;77.59;101795.63;4952955;28;20064;-64
2021/12/22 06:21:54;;;;;;;58.03;29.45;;;;;;;0.75;77.13;101806.41;4939216;29;20055;-65
2021/12/22 06:24:21;;;;;;;61.60;29.25;;;;;;;0.83;76.88;101801.53;4937615;29;20054;-66
2021/12/22 06:26:48;;;;;;;57.17;28.05;;;;;;;0.74;77.15;101794.75;4938716;29;20058;-65
2021/12/22 06:29:16;;;;;;;60.40;29.05;;;;;;;0.51;76.98;101797.22;4939029;29;20044;-66
2021/12/22 06:31:43;;;;;;;57.20;28.63;;;;;;;0.56;77.94;101799.28;4937665;29;20056;-66
2021/12/22 06:34:13;;;;;;;61.25;29.95;;;;;;;0.49;78.19;101803.94;4939103;29;20051;-66
2021/12/22 06:36:40;;;;;;;63.33;30.45;;;;;;;0.55;77.69;101803.03;4938571;29;20059;-65
2021/12/22 06:39:08;;;;;;;63.55;30.90;;;;;;;0.44;78.40;101806.44;4938883;29;20415;-65
2021/12/22 06:41:35;;;;;;;62.42;29.98;;;;;;;0.64;78.02;101799.84;4939005;29;20063;-65
2021/12/22 06:44:05;;;;;;;64.55;31.58;;;;;;;0.64;77.82;101794.41;4939045;29;20064;-64
2021/12/22 06:46:33;;;;;;;66.35;30.70;;;;;;;0.63;77.99;101813.59;4938922;29;20062;-65
2021/12/22 06:49:00;;;;;;;68.45;29.58;;;;;;;0.43;78.43;101815.66;4937414;29;20056;-64
2021/12/22 06:51:28;;;;;;;65.20;29.23;;;;;;;0.63;78.12;101824.44;4938793;29;20056;-64
2021/12/22 06:53:55;;;;;;;61.00;29.42;;;;;;;0.77;77.46;101824.09;4938736;29;20054;-65
2021/12/22 06:56:22;;;;;;;58.35;28.90;;;;;;;0.83;77.03;101806.97;4938559;29;20058;-64
2021/12/22 06:58:50;;;;;;;58.42;29.92;;;;;;;0.70;77.34;101817.91;4938668;29;20071;-65
2021/12/22 07:01:19;;;;;;;56.72;27.85;;;;;;;0.35;77.37;101808.59;4938534;29;20052;-65
2021/12/22 07:03:48;;;;;;;59.80;26.88;;;;;;;0.28;78.17;101817.84;4922943;29;20048;-65
2021/12/22 07:06:16;;;;;;;58.70;28.88;;;;;;;0.22;77.51;101816.84;4919394;29;20052;-64
2021/12/22 07:08:44;;;;;;;53.67;27.45;;;;;;;0.22;78.27;101816.00;4919042;29;20059;-65
2021/12/22 07:11:12;;;;;;;54.13;27.50;;;;;;;0.31;77.54;101801.16;4919546;29;20141;-65
2021/12/22 07:13:39;;;;;;;54.75;27.08;;;;;;;0.20;77.60;101801.84;4919583;29;20047;-65
2021/12/22 07:16:07;;;;;;;56.38;27.77;;;;;;;0.18;78.11;101801.22;4919318;29;20055;-65
2021/12/22 07:18:35;;;;;;;56.22;26.30;;;;;;;0.35;77.38;101807.78;4919304;29;20086;-65
2021/12/22 07:21:03;;;;;;;58.92;27.40;;;;;;;0.50;76.89;101811.84;4919364;29;20058;-65
2021/12/22 07:23:30;;;;;;;54.72;28.30;;;;;;;0.41;76.42;101809.59;4917905;29;20412;-64
2021/12/22 07:25:57;;;;;;;54.83;26.48;;;;;;;0.51;76.64;101809.94;4919130;29;20052;-65
2021/12/22 07:28:25;;;;;;;52.45;26.80;;;;;;;0.52;75.58;101811.63;4919204;29;20055;-65
2021/12/22 07:30:52;;;;;;;56.20;27.23;;;;;;;0.62;75.83;101806.53;4918689;29;20060;-65
2021/12/22 07:33:19;;;;;;;53.72;26.33;;;;;;;0.44;75.84;101820.84;4918875;29;20044;-65
2021/12/22 07:35:58;;;;;;;55.85;25.83;;;;;;;0.41;76.41;101820.44;4917754;29;20052;-64
2021/12/22 07:38:40;;;;;;;50.50;26.33;;;;;;;0.27;76.20;101813.47;4919097;29;20056;-67
2021/12/22 07:41:08;;;;;;;51.35;27.08;;;;;;;0.24;76.70;101817.47;4918948;29;20052;-64
2021/12/22 07:43:36;;;;;;;55.88;27.35;;;;;;;0.14;76.92;101819.78;4919066;29;20054;-64
2021/12/22 07:46:04;;;;;;;50.17;26.77;;;;;;;0.26;76.66;101812.66;4918885;29;20063;-64
2021/12/22 07:48:31;;;;;;;56.25;27.88;;;;;;;0.15;77.03;101807.94;4917522;29;20048;-64
2021/12/22 07:50:59;;;;;;;48.67;27.13;;;;;;;0.30;77.00;101807.63;4917627;29;20048;-65
2021/12/22 07:53:26;;;;;;;57.40;29.10;;;;;;;0.14;76.88;101802.72;4918543;29;20052;-65
2021/12/22 07:55:54;;;;;;;58.25;27.63;;;;;;;0.32;77.74;101802.78;4918417;29;20420;-64
2021/12/22 07:58:22;;;;;;;55.15;28.48;;;;;;;0.28;77.36;101807.81;4917388;29;20063;-65
2021/12/22 08:00:50;;;;;;;66.60;29.33;;;;;;;0.39;77.47;101811.69;4918813;29;20147;-65
2021/12/22 08:03:17;;;;;;;57.65;28.40;;;;;;;0.62;76.40;101818.19;4929425;29;20052;-66
2021/12/22 08:06:05;;;;;;;57.90;28.75;;;;;;;0.65;76.11;101825.88;4936454;29;20083;-64
2021/12/22 08:08:32;;;;;;;54.85;28.63;;;;;;;0.82;75.58;101820.75;4936664;29;20052;-65
2021/12/22 08:10:59;;;;;;;66.18;32.85;;;;;;;0.67;75.67;101826.50;4937525;29;20063;-64
2021/12/22 08:13:26;;;;;;;61.10;30.23;;;;;;;0.61;75.69;101821.13;4936284;29;20055;-65
2021/12/22 08:15:54;;;;;;;60.63;28.10;;;;;;;0.57;76.23;101811.78;4935831;29;20066;-66
2021/12/22 08:18:21;;;;;;;58.72;28.70;;;;;;;0.36;76.69;101812.16;4937424;29;20056;-65
2021/12/22 08:20:48;;;;;;;61.58;29.25;;;;;;;0.35;77.21;101811.31;4937587;29;20060;-64
2021/12/22 08:23:18;;;;;;;63.78;30.00;;;;;;;0.33;76.98;101807.19;4937520;29;20397;-65
2021/12/22 08:25:47;;;;;;;60.58;29.58;;;;;;;0.19;77.76;101808.31;4935663;29;20056;-65
2021/12/22 08:28:15;;;;;;;60.90;28.42;;;;;;;0.32;77.89;101805.50;4937671;29;20047;-65
2021/12/22 08:30:42;;;;;;;66.35;31.65;;;;;;;0.43;76.98;101802.09;4937833;29;20411;-65
2021/12/22 08:33:20;;;;;;;64.30;29.50;;;;;;;0.50;77.21;101803.72;4937689;29;20066;-66
2021/12/22 08:38:52;;;;;;;59.80;30.77;;;;;;;0.66;76.69;101799.63;4937618;29;20059;-65
2021/12/22 08:41:28;;;;;;;64.85;29.98;;;;;;;0.72;76.76;101790.56;4936044;29;20372;-64
2021/12/22 08:43:59;;;;;;;66.30;30.92;;;;;;;0.36;76.67;101796.72;4940937;29;20056;-65
2021/12/22 08:46:27;;;;;;;65.20;32.45;;;;;;;0.35;78.10;101797.75;4940973;29;20051;-65
2021/12/22 08:48:55;;;;;;;61.30;31.00;;;;;;;0.46;77.58;101801.66;4955298;29;20063;-65
2021/12/22 08:51:22;;;;;;;66.53;30.45;;;;;;;0.66;76.54;101796.91;4941023;29;20430;-65
2021/12/22 08:53:51;;;;;;;67.10;30.80;;;;;;;0.48;77.00;101797.69;4939514;29;20055;-65
2021/12/22 08:56:20;;;;;;;66.10;32.25;;;;;;;0.42;78.00;101789.59;4940428;29;20056;-65
2021/12/22 08:58:48;;;;;;;67.15;31.30;;;;;;;0.36;78.35;101793.19;4939535;29;20047;-65
2021/12/22 09:01:15;;;;;;;68.18;31.10;;;;;;;0.53;78.01;101789.72;4940532;29;20499;-66
2021/12/22 09:03:43;;;;;;;63.88;30.80;;;;;;;0.58;77.16;101789.88;4924253;29;20067;-66
2021/12/22 09:06:11;;;;;;;68.78;30.63;;;;;;;0.60;76.59;101786.94;4921287;29;20407;-65
2021/12/22 09:08:40;;;;;;;62.53;30.75;;;;;;;0.67;77.01;101776.88;4921513;29;20051;-66
2021/12/22 09:11:07;;;;;;;67.85;31.77;;;;;;;0.81;76.27;101789.25;4921623;29;20056;-65
2021/12/22 09:13:37;;;;;;;67.40;31.20;;;;;;;0.78;76.80;101790.53;4921476;29;20052;-66
2021/12/22 09:16:05;;;;;;;68.25;31.48;;;;;;;0.91;76.26;101784.13;4921305;29;20051;-65
2021/12/22 09:18:33;;;;;;;70.75;31.33;;;;;;;0.72;76.41;101791.41;4921093;29;20059;-66
2021/12/22 09:21:02;;;;;;;64.35;31.27;;;;;;;0.64;76.55;101799.84;4921334;29;20048;-66
2021/12/22 09:23:29;;;;;;;73.03;35.08;;;;;;;0.71;77.01;101787.06;4921356;29;20062;-66
2021/12/22 09:25:57;;;;;;;66.93;32.38;;;;;;;0.69;76.25;101783.72;4921022;29;20416;-66
2021/12/22 09:28:24;;;;;;;68.82;31.75;;;;;;;0.81;76.44;101792.78;4919841;29;20048;-65
2021/12/22 09:30:52;;;;;;;69.95;32.40;;;;;;;0.70;76.42;101784.53;4921331;29;20048;-66
2021/12/22 09:33:20;;;;;;;63.53;30.60;;;;;;;0.90;76.49;101779.78;4920941;29;20052;-66
2021/12/22 09:35:49;;;;;;;64.80;29.95;;;;;;;0.85;76.28;101787.75;4920923;29;20048;-66
2021/12/22 09:38:16;;;;;;;65.82;31.42;;;;;;;1.25;75.43;101785.44;4920892;29;20079;-65
2021/12/22 09:40:45;;;;;;;81.97;41.00;;;;;;;0.94;75.98;101798.06;4919456;29;20052;-66
2021/12/22 09:43:13;;;;;;;65.70;32.03;;;;;;;1.21;75.03;101800.50;4919545;29;20056;-66
2021/12/22 09:45:48;;;;;;;72.25;34.70;;;;;;;1.09;75.03;101800.44;4903863;29;20083;-66
2021/12/22 09:52:16;;;;;;;68.03;31.73;;;;;;;1.48;73.28;101791.84;4919039;29;20141;-66
2021/12/22 09:53:45;;;;;;;73.25;31.17;;;;;;;0.80;74.75;101799.25;4918901;29;20059;-67
2021/12/22 09:56:15;;;;;;;71.97;33.60;;;;;;;0.84;75.69;101805.06;4920523;29;20060;-66
2021/12/22 09:58:44;;;;;;;75.03;34.42;;;;;;;0.97;76.02;101804.94;4920721;29;20058;-66
2021/12/22 10:01:12;;;;;;;70.05;32.65;;;;;;;1.05;75.46;101793.78;4919114;29;20052;-66
2021/12/22 10:03:40;;;;;;;73.38;32.40;;;;;;;0.97;76.14;101802.22;4933239;29;20416;-67
2021/12/22 10:06:08;;;;;;;69.45;33.03;;;;;;;0.88;75.88;101804.41;4953271;28;20112;-65
2021/12/22 10:08:39;;;;;;;71.00;32.45;;;;;;;1.04;76.38;101790.28;4938173;29;20092;-66
2021/12/22 10:11:10;;;;;;;72.13;32.97;;;;;;;1.10;75.66;101791.22;4939409;29;20063;-66
2021/12/22 10:13:44;;;;;;;65.38;32.97;;;;;;;1.17;76.16;101783.03;4939314;29;20067;-66
2021/12/22 10:16:21;;;;;;;72.28;34.92;;;;;;;1.23;75.43;101791.09;4939485;29;20048;-66
2021/12/22 10:19:08;;;;;;;63.65;32.42;;;;;;;1.36;74.75;101793.66;4938348;29;20051;-65
2021/12/22 10:21:59;;;;;;;61.85;31.90;;;;;;;1.37;75.10;101789.06;4937809;29;20067;-66
2021/12/22 10:24:43;;;;;;;61.63;31.30;;;;;;;1.48;74.01;101794.56;4938601;29;20089;-66
2021/12/22 10:27:12;;;;;;;69.65;30.90;;;;;;;1.40;74.52;101791.31;4938883;29;20074;-66
2021/12/22 10:29:39;;;;;;;61.83;32.10;;;;;;;1.56;73.33;101790.69;4938960;29;20070;-66
2021/12/22 10:32:12;;;;;;;61.75;32.22;;;;;;;1.63;73.15;101789.56;4939053;29;20055;-67
2021/12/22 10:34:58;;;;;;;58.28;29.70;;;;;;;1.50;73.09;101791.63;4937760;29;20059;-66
2021/12/22 10:37:40;;;;;;;67.57;32.63;;;;;;;1.47;73.41;101790.19;4938699;29;20161;-66
2021/12/22 10:40:32;;;;;;;63.10;31.55;;;;;;;1.75;72.51;101787.72;4938980;29;20063;-67
2021/12/22 10:43:00;;;;;;;60.63;31.65;;;;;;;1.52;72.62;101774.03;4937173;29;20071;-65
2021/12/22 10:45:30;;;;;;;64.75;33.40;;;;;;;1.35;73.91;101770.28;4938544;29;20060;-65
2021/12/22 10:50:47;;;;;;;63.97;32.45;;;;;;;1.11;74.50;101754.94;4938727;29;20063;-66
2021/12/22 10:53:14;;;;;;;64.88;31.85;;;;;;;1.38;73.58;101747.31;4937090;29;20135;-65
2021/12/22 10:55:45;;;;;;;;;;;;;;;1.26;74.23;101749.09;4937576;29;20500;-66
2021/12/22 10:58:41;;;;;;;63.45;31.60;;;;;;;1.28;74.27;101736.97;4938438;29;19922;-65
2021/12/22 11:01:14;;;;;;;60.83;31.55;;;;;;;1.24;74.19;101740.38;4936850;29;20063;-66
2021/12/22 11:03:46;;;;;;;70.18;33.08;;;;;;;1.22;74.28;101737.06;4923688;29;20052;-65
2021/12/22 11:06:27;;;;;;;68.93;33.22;;;;;;;1.58;74.08;101732.41;4917945;29;20048;-66
2021/12/22 11:09:10;;;;;;;62.80;32.28;;;;;;;1.50;73.28;101742.75;4919162;29;20052;-67
2021/12/22 11:11:39;;;;;;;61.95;31.75;;;;;;;1.38;73.76;101734.53;4917828;29;20048;-65
2021/12/22 11:14:10;;;;;;;61.03;30.92;;;;;;;1.28;73.70;101728.84;4919155;29;20055;-66
2021/12/22 11:16:53;;;;;;;63.13;32.20;;;;;;;1.42;73.90;101727.59;4902062;29;20063;-66
2021/12/22 11:19:23;;;;;;;62.53;32.40;;;;;;;1.46;73.58;101723.38;4918786;29;20166;-67
2021/12/22 11:22:16;;;;;;;56.17;29.80;;;;;;;1.75;73.16;101721.72;4919200;29;20071;-66
2021/12/22 11:24:49;;;;;;;55.83;29.73;;;;;;;1.84;72.14;101723.06;4917690;29;20129;-66
2021/12/22 11:27:26;;;;;;;59.17;30.35;;;;;;;1.84;71.64;101713.03;4917344;29;20052;-66
2021/12/22 11:29:55;;;;;;;59.05;30.17;;;;;;;1.80;71.52;101711.81;4919046;29;20056;-66
2021/12/22 11:32:28;;;;;;;58.53;31.48;;;;;;;1.30;72.36;101713.16;4918651;29;20048;-66
2021/12/22 11:35:00;;;;;;;60.33;31.55;;;;;;;1.32;73.36;101710.22;4917665;29;20063;-66
2021/12/22 11:37:28;;;;;;;81.03;39.50;;;;;;;1.31;73.56;101703.13;4918664;29;20056;-65
2021/12/22 11:39:57;;;;;;;77.43;39.97;;;;;;;1.45;72.57;101700.00;4918667;29;20052;-66
2021/12/22 11:42:31;;;;;;;63.03;34.00;;;;;;;1.64;72.45;101698.09;4917770;29;20056;-66
2021/12/22 11:45:19;;;;;;;59.33;34.25;;;;;;;1.56;72.34;101690.25;4918679;29;20059;-66
2021/12/22 11:47:57;;;;;;;58.22;30.85;;;;;;;1.74;71.65;101691.03;4917335;29;20052;-66
2021/12/22 11:50:31;;;;;;;55.03;29.85;;;;;;;1.58;71.76;101683.53;4917702;29;20063;-66